NIEUW!!! Volg onze weer- en natuurfoto's op Instagram @ weerstationmaaseik.be

WS Maaseik 1 Meer informatie WS Maaseik 1


WS Maaseik 2 Meer informatie WS Maaseik 2


Regen radar Meer informatie rain snow radar


Bezoek onze andere website:

Vorige versie
weerstation Maaseik


Bezoek ook eens deze sites:

Weerstation Geleen



Het weer levert geen direct gevaar op.    Er zijn geen waarschuwingen afgegeven.

METAR rapporten vliegvelden

   
EBBR - Brussels International Airport, Belgium
Afstand tot: W 14 km
Gewijzigd: 12-12-2019 11:50
Licht bewolkt  
Licht bewolkt  
   Wind: Zuiden 22.2 km/h
Wind: Zuiden 22.2 km/h
Temperatuur: 4°C
Voelt als: -1°C
Dauwpunt: 2°C
Vochtigheid: 87%
Barometer: 1000 hPa
Bewolking: Few Clouds
Zicht: meer dan 10 km
Bewolking: Licht bewolkt 1400 ft
EBBR 121050Z 18012KT 9999 FEW014 04/02 Q1000 NOSIG
EBBE - Beauvechain (Bevekom), Belgium
Afstand tot: ZZO 17 km
Gewijzigd: 12-12-2019 11:55
Gedeeltelijk bewolkt  
Gedeeltelijk bewolkt  
   Wind: Zuiden 25.9 km/h
Wind: Zuiden 25.9 km/h
Temperatuur: 4°C
Voelt als: -1°C
Dauwpunt: 2°C
Vochtigheid: 87%
Barometer: 1000 hPa
Bewolking: Partly Cloudy
Zicht: meer dan 10 km
Bewolking: Licht bewolkt 1200 ft,
Gedeeltelijk bewolkt 1600 ft
EBBE 121055Z 19014KT 9999 FEW012 SCT016 04/02 Q1000 WHT WHT BECMG BLU
EBDT - Schaffen, Belgium
Afstand tot: ONO 29 km
Gewijzigd: 12-12-2019 11:55
Grotendeels bewolkt  
Grotendeels bewolkt  
   Wind: Zuiden 20.4 km/h
Wind: Zuiden 20.4 km/h
Temperatuur: 5°C
Voelt als: 1°C
Dauwpunt: 2°C
Vochtigheid: 81%
Barometer: 1001 hPa
Bewolking: Mostly Cloudy
Zicht: meer dan 10 km
Bewolking: Grotendeels bewolkt 1200 ft
EBDT 121055Z AUTO 19011KT 9999 BKN012/// 05/02 Q1001 GRN
EBAW - Antwerp/Deurne, Belgium
Afstand tot: NNW 38 km
Gewijzigd: 12-12-2019 11:50
Licht bewolkt  
Licht bewolkt  
   Wind: Zuiden 20.4 km/h
Wind: Zuiden 20.4 km/h
Temperatuur: 5°C
Voelt als: 1°C
Dauwpunt: 2°C
Vochtigheid: 81%
Barometer: 1000 hPa
Bewolking: Few Clouds
Zicht: meer dan 10 km
Bewolking: Licht bewolkt 1300 ft
EBAW 121050Z 18011KT 9999 FEW013 05/02 Q1000 NOSIG
EBCI - Charleroi/Gosselies, Belgium
Afstand tot: ZZW 51 km
Gewijzigd: 12-12-2019 11:50
Grotendeels bewolkt  
Grotendeels bewolkt  
   Wind: Zuiden 22.2 km/h
Wind: Zuiden 22.2 km/h
Temperatuur: 3°C
Voelt als: -2°C
Dauwpunt: 1°C
Vochtigheid: 87%
Barometer: 1001 hPa
Bewolking: Mostly Cloudy
Zicht: meer dan 10 km
Bewolking: Gedeeltelijk bewolkt 900 ft,
Grotendeels bewolkt 1100 ft
EBCI 121050Z 19012KT 9999 SCT009 BKN011 03/01 Q1001 BECMG SCT012
EBLG - Bierset/Liege, Belgium
Afstand tot: OZO 60 km
Gewijzigd: 12-12-2019 11:50
Gedeeltelijk bewolkt  
Gedeeltelijk bewolkt  
   Wind: ZZW 25.9 km/h
Wind: ZZW 25.9 km/h
Temperatuur: 4°C
Voelt als: -1°C
Dauwpunt: 1°C
Vochtigheid: 81%
Barometer: 1001 hPa
Bewolking: Partly Cloudy
Zicht: meer dan 10 km
Bewolking: Gedeeltelijk bewolkt 1500 ft
EBLG 121050Z 21014KT 9999 SCT015 04/01 Q1001 NOSIG

Script ontwikkeld door  Saratoga-weather.org Aangepast voor de template door  Weerstation Leuven

U vindt ons ook hier:

Het Weer Aktueel

Weather Underground

AWEKAS